Time;durP1;ratioP1;P1;durP2;ratioP2;P2;SDS_P1;SDS_P2;PMS_P1;PMS_P2;Temp;Humidity;BMP_temperature;BMP_pressure;BME280_temperature;BME280_humidity;BME280_pressure;Samples;Min_cycle;Max_cycle;Signal;HPM_P1;HPM_P2
2023/04/25 00:00:25;;;;;;;0.20;0.20;;;;;;;13.97;92.02;99761.91;5038571;28;20537;-63
2023/04/25 00:02:56;;;;;;;0.20;0.20;;;;;;;14.01;90.68;99765.47;5038344;28;20028;-63
2023/04/25 00:05:25;;;;;;;0.20;0.20;;;;;;;14.03;90.52;99766.69;5038294;28;20028;-63
2023/04/25 00:07:55;;;;;;;0.20;0.20;;;;;;;13.99;90.30;99771.47;5038249;28;20040;-62
2023/04/25 00:10:21;;;;;;;0.20;0.20;;;;;;;13.98;89.65;99769.88;5038263;28;20029;-63
2023/04/25 00:12:51;;;;;;;0.20;0.20;;;;;;;14.02;90.24;99764.31;5038001;28;20044;-63
2023/04/25 00:15:19;;;;;;;0.20;0.20;;;;;;;14.03;89.92;99755.50;5038397;28;20395;-63
2023/04/25 00:17:48;;;;;;;0.20;0.20;;;;;;;14.18;88.13;99755.53;5037623;28;20052;-63
2023/04/25 00:20:13;;;;;;;0.20;0.20;;;;;;;14.06;87.70;99749.13;5037964;28;20021;-63
2023/04/25 00:22:41;;;;;;;0.20;0.20;;;;;;;14.12;87.74;99746.75;5038064;28;20025;-63
2023/04/25 00:25:12;;;;;;;0.20;0.20;;;;;;;14.04;88.42;99751.50;5038260;28;20383;-63
2023/04/25 00:27:41;;;;;;;0.20;0.20;;;;;;;14.00;89.07;99742.31;5038409;28;20384;-63
2023/04/25 00:30:10;;;;;;;0.20;0.20;;;;;;;13.89;88.74;99750.69;5037930;28;20033;-62
2023/04/25 00:32:38;;;;;;;0.20;0.20;;;;;;;13.56;90.49;99748.19;5037772;28;20033;-63
2023/04/25 00:35:04;;;;;;;0.20;0.20;;;;;;;13.36;92.55;99740.09;5037705;28;20032;-61
2023/04/25 00:37:29;;;;;;;0.30;0.30;;;;;;;13.36;93.34;99753.28;5037668;28;20040;-63
2023/04/25 00:39:57;;;;;;;0.20;0.20;;;;;;;13.34;94.07;99750.09;5037726;28;20438;-62
2023/04/25 00:42:25;;;;;;;0.20;0.20;;;;;;;13.35;94.46;99743.31;5037633;28;20041;-63
2023/04/25 00:44:55;;;;;;;0.20;0.20;;;;;;;13.35;95.58;99749.69;5037914;28;20044;-62
2023/04/25 00:47:20;;;;;;;0.20;0.20;;;;;;;13.38;95.80;99739.72;5038049;28;20403;-62
2023/04/25 00:49:53;;;;;;;0.20;0.20;;;;;;;13.33;95.40;99740.13;5037494;28;20120;-63
2023/04/25 00:52:19;;;;;;;0.20;0.20;;;;;;;13.23;96.49;99746.44;5037480;28;20060;-61
2023/04/25 00:54:50;;;;;;;0.20;0.20;;;;;;;13.17;97.81;99745.19;5037959;28;20029;-62
2023/04/25 00:57:20;;;;;;;0.20;0.20;;;;;;;13.19;98.60;99746.38;5037862;28;20037;-60
2023/04/25 00:59:51;;;;;;;0.20;0.20;;;;;;;13.27;98.60;99741.69;5037495;28;20123;-62
2023/04/25 01:02:17;;;;;;;0.20;0.20;;;;;;;13.34;98.05;99736.91;5037554;28;20033;-61
2023/04/25 01:04:50;;;;;;;0.20;0.20;;;;;;;13.40;98.18;99742.94;5037241;28;20029;-61
2023/04/25 01:07:19;;;;;;;0.20;0.20;;;;;;;13.44;98.09;99740.16;5037185;28;20059;-60
2023/04/25 01:09:47;;;;;;;0.20;0.20;;;;;;;13.41;97.26;99741.72;5037147;28;20123;-63
2023/04/25 01:12:16;;;;;;;0.20;0.20;;;;;;;13.47;98.16;99748.53;5037101;28;20179;-62
2023/04/25 01:14:44;;;;;;;0.20;0.20;;;;;;;13.45;97.85;99755.72;5037567;28;20157;-61
2023/04/25 01:17:10;;;;;;;0.20;0.20;;;;;;;13.54;98.06;99756.16;5037278;28;20128;-62
2023/04/25 01:19:36;;;;;;;0.20;0.20;;;;;;;13.57;98.02;99747.78;5036869;28;20108;-62
2023/04/25 01:22:01;;;;;;;0.20;0.20;;;;;;;13.63;98.07;99729.47;5037421;28;20029;-62
2023/04/25 01:24:31;;;;;;;0.20;0.20;;;;;;;13.62;97.60;99711.06;5036177;28;20028;-64
2023/04/25 01:27:00;;;;;;;0.20;0.20;;;;;;;13.61;97.64;99715.06;5037559;28;20033;-62
2023/04/25 01:29:27;;;;;;;0.20;0.20;;;;;;;13.56;97.73;99718.22;5036992;28;20146;-62
2023/04/25 01:31:58;;;;;;;0.20;0.20;;;;;;;13.57;97.81;99722.63;5036707;28;20024;-61
2023/04/25 01:34:25;;;;;;;0.20;0.20;;;;;;;13.56;98.21;99712.66;5054563;28;20024;-62
2023/04/25 01:36:53;;;;;;;0.20;0.20;;;;;;;13.65;97.94;99714.28;5037186;28;20124;-63
2023/04/25 01:39:24;;;;;;;0.20;0.20;;;;;;;13.76;97.15;99712.31;5036771;28;20028;-63
2023/04/25 01:41:54;;;;;;;0.20;0.20;;;;;;;13.62;97.31;99702.69;5037123;28;20375;-62
2023/04/25 01:44:20;;;;;;;0.20;0.20;;;;;;;13.59;98.48;99697.88;5036464;28;20025;-62
2023/04/25 01:46:45;;;;;;;0.20;0.20;;;;;;;13.56;98.36;99698.66;5037180;28;20136;-62
2023/04/25 01:49:16;;;;;;;0.20;0.20;;;;;;;13.52;98.74;99686.66;5036126;28;20365;-62
2023/04/25 01:51:44;;;;;;;0.20;0.20;;;;;;;13.40;99.42;99677.84;5035919;28;20106;-61
2023/04/25 01:54:12;;;;;;;0.20;0.20;;;;;;;13.36;100.00;99677.84;5036590;28;20060;-62
2023/04/25 01:56:39;;;;;;;0.20;0.20;;;;;;;13.35;100.00;99677.03;5036813;28;20360;-63
2023/04/25 01:59:05;;;;;;;0.20;0.20;;;;;;;13.27;100.00;99683.00;5036149;28;20124;-62
2023/04/25 02:01:34;;;;;;;0.20;0.20;;;;;;;13.26;100.00;99668.25;5037070;28;20064;-62
2023/04/25 02:04:02;;;;;;;0.20;0.20;;;;;;;13.23;100.00;99663.44;5036076;28;20032;-62
2023/04/25 02:06:27;;;;;;;0.20;0.20;;;;;;;13.19;100.00;99667.38;5036691;28;20083;-62
2023/04/25 02:08:58;;;;;;;0.20;0.20;;;;;;;13.06;100.00;99670.53;5037946;28;20029;-62
2023/04/25 02:11:23;;;;;;;0.20;0.20;;;;;;;13.04;100.00;99672.88;5036249;28;20032;-62
2023/04/25 02:13:51;;;;;;;0.20;0.20;;;;;;;13.10;100.00;99681.69;5036059;28;20029;-61
2023/04/25 02:16:17;;;;;;;0.20;0.20;;;;;;;13.15;100.00;99689.69;5036493;28;20352;-62
2023/04/25 02:18:47;;;;;;;0.20;0.20;;;;;;;13.19;100.00;99696.09;5036209;28;20029;-63
2023/04/25 02:21:13;;;;;;;0.20;0.20;;;;;;;13.15;100.00;99689.69;5035832;28;20120;-63
2023/04/25 02:23:41;;;;;;;0.20;0.20;;;;;;;13.08;100.00;99679.28;5035946;28;20063;-63
2023/04/25 02:26:11;;;;;;;0.20;0.20;;;;;;;13.08;100.00;99679.28;5035846;28;20029;-63
2023/04/25 02:28:40;;;;;;;0.20;0.20;;;;;;;13.07;100.00;99677.69;5036077;28;20051;-62
2023/04/25 02:31:07;;;;;;;0.20;0.20;;;;;;;13.03;100.00;99676.06;5035728;28;20032;-62
2023/04/25 02:33:35;;;;;;;0.20;0.20;;;;;;;12.97;100.00;99661.69;5036077;28;20168;-62
2023/04/25 02:36:03;;;;;;;0.20;0.20;;;;;;;13.01;100.00;99656.13;5035057;28;20472;-62
2023/04/25 02:38:33;;;;;;;0.20;0.20;;;;;;;12.96;100.00;99651.72;5035424;28;20031;-62
2023/04/25 02:41:06;;;;;;;0.20;0.20;;;;;;;12.95;100.00;99658.50;5036194;28;20029;-62
2023/04/25 02:43:34;;;;;;;0.20;0.20;;;;;;;12.63;100.00;99629.63;5035731;28;20056;-62
2023/04/25 02:46:02;;;;;;;0.20;0.20;;;;;;;12.83;100.00;99661.59;5035654;28;20025;-62
2023/04/25 02:48:34;;;;;;;0.20;0.20;;;;;;;12.75;100.00;99654.41;5053510;28;20021;-62
2023/04/25 02:51:06;;;;;;;0.20;0.20;;;;;;;12.73;100.00;99652.00;5035629;28;20415;-62
2023/04/25 02:53:37;;;;;;;0.20;0.20;;;;;;;12.69;100.00;99651.19;5035888;28;20041;-62
2023/04/25 02:56:05;;;;;;;0.20;0.20;;;;;;;12.65;100.00;99655.94;5035937;28;20102;-62
2023/04/25 02:58:36;;;;;;;0.20;0.20;;;;;;;12.68;100.00;99649.59;5035557;28;20033;-62
2023/04/25 03:01:01;;;;;;;0.20;0.20;;;;;;;12.78;100.00;99651.63;5035411;28;20029;-62
2023/04/25 03:03:29;;;;;;;0.20;0.20;;;;;;;12.88;100.00;99654.84;5035824;28;20087;-62
2023/04/25 03:06:00;;;;;;;0.20;0.20;;;;;;;12.95;100.00;99652.91;5035488;28;20075;-63
2023/04/25 03:08:34;;;;;;;0.20;0.20;;;;;;;13.03;100.00;99665.72;5036765;28;20367;-62
2023/04/25 03:11:03;;;;;;;0.20;0.20;;;;;;;13.09;100.00;99668.91;5036645;28;20052;-63
2023/04/25 03:13:31;;;;;;;0.20;0.20;;;;;;;13.13;100.00;99677.31;5036151;28;20029;-62
2023/04/25 03:15:58;;;;;;;0.20;0.20;;;;;;;13.09;100.00;99675.31;5035706;28;20395;-63
2023/04/25 03:18:31;;;;;;;0.20;0.20;;;;;;;13.12;100.00;99679.31;5035393;28;20057;-62
2023/04/25 03:20:59;;;;;;;0.20;0.20;;;;;;;13.11;100.00;99683.31;5035569;28;20029;-63
2023/04/25 03:23:25;;;;;;;0.20;0.20;;;;;;;13.09;100.00;99680.09;5035262;28;20087;-62
2023/04/25 03:25:53;;;;;;;0.20;0.20;;;;;;;13.05;100.00;99680.09;5035897;28;20037;-62
2023/04/25 03:28:22;;;;;;;0.20;0.20;;;;;;;13.03;100.00;99676.88;5035270;28;20087;-62
2023/04/25 03:30:50;;;;;;;0.20;0.20;;;;;;;12.99;100.00;99667.69;5035719;28;20407;-63
2023/04/25 03:33:15;;;;;;;0.20;0.20;;;;;;;13.03;100.00;99660.13;5035135;28;20025;-63
2023/04/25 03:35:42;;;;;;;0.20;0.20;;;;;;;13.01;100.00;99661.72;5035182;28;20120;-62
2023/04/25 03:38:13;;;;;;;0.20;0.20;;;;;;;13.02;100.00;99658.53;5052988;28;20025;-62
2023/04/25 03:40:43;;;;;;;0.20;0.20;;;;;;;13.03;100.00;99654.53;5035710;28;20083;-63
2023/04/25 03:43:11;;;;;;;0.20;0.20;;;;;;;13.00;100.00;99666.50;5034988;28;20028;-62
2023/04/25 03:45:37;;;;;;;0.20;0.20;;;;;;;12.90;100.00;99664.47;5035066;28;20132;-63
2023/04/25 03:48:05;;;;;;;0.20;0.20;;;;;;;12.63;100.00;99663.91;5036292;28;20112;-63
2023/04/25 03:50:31;;;;;;;0.20;0.20;;;;;;;12.50;100.00;99677.38;5038940;28;20091;-63
2023/04/25 03:53:01;;;;;;;0.20;0.20;;;;;;;12.42;100.00;99675.72;5039199;28;20033;-63
2023/04/25 03:55:27;;;;;;;0.20;0.20;;;;;;;12.43;100.00;99666.16;5038661;28;20036;-63
2023/04/25 03:57:57;;;;;;;0.20;0.20;;;;;;;12.42;100.00;99664.56;5038539;28;20020;-63
2023/04/25 04:00:23;;;;;;;0.20;0.20;;;;;;;12.44;100.00;99662.19;5038739;28;20341;-63
2023/04/25 04:02:49;;;;;;;0.20;0.20;;;;;;;12.53;100.00;99654.28;5038357;28;20036;-63
2023/04/25 04:05:17;;;;;;;0.20;0.20;;;;;;;12.67;100.00;99652.75;5038413;28;20044;-63
2023/04/25 04:07:43;;;;;;;0.20;0.20;;;;;;;12.74;100.00;99655.59;5038574;28;20075;-64
2023/04/25 04:10:12;;;;;;;0.20;0.20;;;;;;;12.76;100.00;99667.16;5038746;28;20391;-63
2023/04/25 04:12:40;;;;;;;0.20;0.20;;;;;;;12.75;100.00;99666.38;5038540;28;20068;-63
2023/04/25 04:15:07;;;;;;;0.20;0.20;;;;;;;12.67;100.00;99672.28;5038741;28;20388;-64
2023/04/25 04:17:32;;;;;;;0.20;0.20;;;;;;;12.65;100.00;99672.69;5038458;28;20029;-63
2023/04/25 04:19:58;;;;;;;0.20;0.20;;;;;;;12.56;100.00;99680.59;5038059;28;20433;-63
2023/04/25 04:22:24;;;;;;;0.20;0.20;;;;;;;12.58;100.00;99675.44;5038111;28;20040;-63
2023/04/25 04:24:50;;;;;;;0.20;0.20;;;;;;;12.57;100.00;99669.06;5038553;28;20033;-63
2023/04/25 04:27:19;;;;;;;0.20;0.20;;;;;;;12.68;100.00;99676.69;5037944;28;20029;-64
2023/04/25 04:29:46;;;;;;;0.20;0.20;;;;;;;12.69;100.00;99667.94;5038227;28;20043;-63
2023/04/25 04:32:14;;;;;;;0.20;0.20;;;;;;;12.71;100.00;99670.31;5037947;28;20116;-63
2023/04/25 04:34:43;;;;;;;0.20;0.20;;;;;;;12.68;100.00;99671.13;5038761;28;20036;-64
2023/04/25 04:37:14;;;;;;;0.20;0.20;;;;;;;12.72;100.00;99688.66;5038823;28;20059;-63
2023/04/25 04:39:42;;;;;;;0.20;0.20;;;;;;;12.81;100.00;99698.31;5037746;28;20533;-65
2023/04/25 04:42:12;;;;;;;0.20;0.20;;;;;;;12.85;100.00;99699.13;5037924;28;20025;-64
2023/04/25 04:44:41;;;;;;;0.20;0.20;;;;;;;12.94;100.00;99695.16;5038138;28;20052;-63
2023/04/25 04:47:07;;;;;;;0.20;0.20;;;;;;;13.00;100.00;99688.84;5037587;28;20057;-70
2023/04/25 04:49:33;;;;;;;0.20;0.20;;;;;;;13.09;100.00;99703.25;5037530;28;20071;-64
2023/04/25 04:52:01;;;;;;;0.20;0.20;;;;;;;13.16;100.00;99690.53;5037428;28;20045;-63
2023/04/25 04:54:29;;;;;;;0.20;0.20;;;;;;;13.15;100.00;99684.09;5037448;28;20029;-63
2023/04/25 04:56:55;;;;;;;0.20;0.20;;;;;;;13.16;100.00;99687.72;5038191;28;20460;-64
2023/04/25 04:59:23;;;;;;;0.20;0.20;;;;;;;13.18;100.00;99686.13;5036045;28;20032;-66
2023/04/25 05:01:52;;;;;;;0.20;0.20;;;;;;;13.23;100.00;99691.38;5037057;28;20119;-63
2023/04/25 05:04:20;;;;;;;0.20;0.20;;;;;;;13.21;100.00;99690.97;5037211;28;20115;-63
2023/04/25 05:06:48;;;;;;;0.20;0.20;;;;;;;13.55;100.00;99697.06;5037215;28;20029;-64
2023/04/25 05:09:19;;;;;;;0.20;0.20;;;;;;;13.53;100.00;99693.88;5037195;28;20040;-64
2023/04/25 05:11:46;;;;;;;0.20;0.20;;;;;;;13.46;100.00;99685.47;5037121;28;20055;-64
2023/04/25 05:14:14;;;;;;;0.20;0.20;;;;;;;13.32;100.00;99689.03;5037379;28;20119;-64
2023/04/25 05:16:49;;;;;;;0.20;0.20;;;;;;;13.30;100.00;99691.38;5037008;28;20032;-64
2023/04/25 05:19:14;;;;;;;0.20;0.20;;;;;;;13.37;100.00;99682.25;5036870;28;20025;-64
2023/04/25 05:21:40;;;;;;;0.20;0.20;;;;;;;13.32;100.00;99689.03;5025441;28;20041;-64
2023/04/25 05:24:05;;;;;;;0.20;0.20;;;;;;;13.30;100.00;99671.03;5033626;28;20030;-63
2023/04/25 05:26:34;;;;;;;0.20;0.20;;;;;;;13.36;100.00;99673.03;5035458;28;20021;-64
2023/04/25 05:29:07;;;;;;;0.20;0.20;;;;;;;13.15;100.00;99677.72;5055265;28;20483;-64
2023/04/25 05:31:35;;;;;;;0.20;0.20;;;;;;;13.15;100.00;99672.94;5054912;28;20037;-64
2023/04/25 05:34:03;;;;;;;0.20;0.20;;;;;;;13.08;100.00;99673.72;5037268;28;20068;-63
2023/04/25 05:36:32;;;;;;;0.20;0.20;;;;;;;13.19;100.00;99664.56;5036616;28;20025;-63
2023/04/25 05:38:58;;;;;;;0.20;0.20;;;;;;;13.24;100.00;99672.63;5036543;28;20036;-63
2023/04/25 05:41:23;;;;;;;0.20;0.20;;;;;;;13.27;100.00;99671.84;5037047;28;20021;-63
2023/04/25 05:43:53;;;;;;;0.20;0.20;;;;;;;13.31;100.00;99676.22;5036448;28;20068;-64
2023/04/25 05:46:21;;;;;;;0.20;0.20;;;;;;;13.44;100.00;99667.50;5036465;28;20074;-63
2023/04/25 05:48:47;;;;;;;0.20;0.20;;;;;;;13.51;100.00;99668.31;5036520;28;20029;-63
2023/04/25 05:51:16;;;;;;;0.20;0.20;;;;;;;13.80;100.00;99668.38;5036389;28;20052;-64
2023/04/25 05:53:46;;;;;;;0.20;0.20;;;;;;;14.06;100.00;99676.41;5036432;28;20025;-63
2023/04/25 05:56:14;;;;;;;0.20;0.20;;;;;;;14.26;100.00;99662.81;5036438;28;20098;-63
2023/04/25 05:58:40;;;;;;;0.20;0.20;;;;;;;14.47;98.68;99675.19;5036348;28;20037;-65
2023/04/25 06:01:06;;;;;;;0.20;0.20;;;;;;;14.72;95.39;99672.38;5036382;28;20376;-66
2023/04/25 06:03:31;;;;;;;0.20;0.20;;;;;;;14.72;95.88;99683.59;5036826;28;20060;-63
2023/04/25 06:06:03;;;;;;;0.20;0.20;;;;;;;14.62;96.63;99683.19;5036072;28;20390;-63
2023/04/25 06:08:28;;;;;;;0.20;0.20;;;;;;;14.60;95.91;99688.41;5036107;28;20029;-65
2023/04/25 06:10:56;;;;;;;0.20;0.20;;;;;;;14.63;97.33;99687.59;5035484;28;20163;-63
2023/04/25 06:13:22;;;;;;;0.20;0.20;;;;;;;14.63;96.78;99693.19;5035660;28;20031;-65
2023/04/25 06:15:48;;;;;;;0.20;0.20;;;;;;;14.65;96.63;99696.41;5036223;28;20028;-65
2023/04/25 06:18:13;;;;;;;0.20;0.20;;;;;;;14.58;94.61;99699.19;5035956;28;20384;-63
2023/04/25 06:20:44;;;;;;;0.20;0.20;;;;;;;14.52;96.56;99697.22;5035573;28;20115;-64
2023/04/25 06:23:12;;;;;;;0.20;0.20;;;;;;;14.47;97.36;99698.41;5036445;28;20150;-64
2023/04/25 06:25:38;;;;;;;0.20;0.20;;;;;;;14.41;97.95;99697.19;5036121;28;20028;-64
2023/04/25 06:28:03;;;;;;;0.20;0.20;;;;;;;14.37;99.26;99699.19;5035109;28;20364;-64
2023/04/25 06:30:33;;;;;;;0.20;0.20;;;;;;;14.37;99.38;99702.78;5035263;28;20037;-64
2023/04/25 06:32:59;;;;;;;0.20;0.20;;;;;;;14.30;99.59;99701.97;5034944;28;20408;-64
2023/04/25 06:35:27;;;;;;;0.20;0.20;;;;;;;14.30;100.00;99707.59;5035812;28;20037;-64
2023/04/25 06:37:53;;;;;;;0.20;0.20;;;;;;;14.20;97.74;99699.97;5036355;28;20033;-65
2023/04/25 06:40:18;;;;;;;0.20;0.20;;;;;;;14.27;97.74;99685.97;5035957;28;20426;-63
2023/04/25 06:42:47;;;;;;;0.20;0.20;;;;;;;14.32;97.00;99685.59;5035672;28;20029;-63
2023/04/25 06:45:15;;;;;;;0.20;0.20;;;;;;;14.71;90.91;99690.41;5035738;28;20040;-64
2023/04/25 06:47:40;;;;;;;0.20;0.20;;;;;;;14.95;88.27;99692.31;5035619;28;20028;-62
2023/04/25 06:50:06;;;;;;;0.20;0.20;;;;;;;15.08;88.82;99693.50;5035059;28;20387;-63
2023/04/25 06:52:32;;;;;;;0.20;0.20;;;;;;;15.12;87.06;99702.66;5035035;28;20069;-61
2023/04/25 06:54:58;;;;;;;0.20;0.20;;;;;;;15.22;85.34;99700.25;5035622;28;20028;-63
2023/04/25 06:57:32;;;;;;;0.20;0.20;;;;;;;15.23;84.73;99704.63;5035285;28;20044;-63
2023/04/25 07:00:01;;;;;;;0.20;0.20;;;;;;;15.22;84.82;99700.25;5034725;28;20482;-63
2023/04/25 07:02:26;;;;;;;0.20;0.20;;;;;;;15.18;84.63;99708.69;5035302;28;20033;-63
2023/04/25 07:04:52;;;;;;;0.20;0.20;;;;;;;15.29;83.98;99694.63;5036219;28;20024;-61
2023/04/25 07:07:19;;;;;;;0.20;0.20;;;;;;;15.26;84.60;99679.41;5035974;28;20032;-62
2023/04/25 07:09:45;;;;;;;0.20;0.20;;;;;;;15.40;84.27;99681.38;5035321;28;20025;-63
2023/04/25 07:12:13;;;;;;;0.20;0.20;;;;;;;15.38;84.70;99672.53;5035894;28;20047;-63
2023/04/25 07:14:41;;;;;;;0.20;0.20;;;;;;;15.22;85.17;99666.63;5035270;28;20028;-63
2023/04/25 07:17:09;;;;;;;0.20;0.20;;;;;;;15.41;85.32;99674.53;5035550;28;20029;-63
2023/04/25 07:19:37;;;;;;;0.20;0.20;;;;;;;15.41;86.81;99666.94;5035196;28;20483;-63
2023/04/25 07:22:06;;;;;;;0.20;0.20;;;;;;;15.34;88.40;99669.78;5035238;28;20033;-62
2023/04/25 07:24:34;;;;;;;0.20;0.20;;;;;;;15.52;88.39;99672.47;5056480;28;20383;-61
2023/04/25 07:27:03;;;;;;;0.20;0.20;;;;;;;15.49;89.61;99672.50;5039294;28;20043;-62
2023/04/25 07:29:31;;;;;;;0.20;0.20;;;;;;;15.74;88.81;99664.78;5038904;28;20079;-67
2023/04/25 07:31:59;;;;;;;0.20;0.20;;;;;;;15.95;88.69;99661.81;5038814;28;20035;-68
2023/04/25 07:34:29;;;;;;;0.20;0.20;;;;;;;16.13;89.05;99664.47;5039101;28;20036;-69
2023/04/25 07:36:55;;;;;;;0.20;0.20;;;;;;;16.15;87.51;99666.91;5038752;28;20041;-69
2023/04/25 07:39:23;;;;;;;0.20;0.20;;;;;;;16.23;86.32;99668.41;5038944;28;20082;-67
2023/04/25 07:41:48;;;;;;;0.20;0.20;;;;;;;16.33;84.82;99666.72;5038718;28;20075;-69
2023/04/25 07:44:13;;;;;;;0.20;0.20;;;;;;;16.72;83.48;99666.38;5038932;28;20068;-67
2023/04/25 07:46:42;;;;;;;0.20;0.20;;;;;;;16.63;82.35;99666.84;5038733;28;20508;-66
2023/04/25 07:49:10;;;;;;;0.20;0.20;;;;;;;16.96;80.87;99676.56;5038991;28;20112;-68
2023/04/25 07:51:35;;;;;;;0.20;0.20;;;;;;;16.85;81.69;99675.09;5038503;28;20049;-68
2023/04/25 07:54:01;;;;;;;0.20;0.20;;;;;;;17.02;79.71;99679.72;5038940;28;20367;-69
2023/04/25 07:56:31;;;;;;;0.20;0.20;;;;;;;17.09;79.27;99681.63;5038746;28;20040;-69
2023/04/25 07:59:01;;;;;;;0.20;0.20;;;;;;;17.71;78.76;99684.06;5038453;28;20029;-69
2023/04/25 08:01:31;;;;;;;0.20;0.20;;;;;;;18.30;75.12;99680.75;5038183;28;20112;-69
2023/04/25 08:03:59;;;;;;;0.20;0.20;;;;;;;18.42;72.99;99668.09;5056484;28;20104;-68
2023/04/25 08:06:27;;;;;;;0.20;0.20;;;;;;;19.32;67.98;99682.13;5038276;28;20061;-68
2023/04/25 08:08:55;;;;;;;0.20;0.20;;;;;;;18.49;71.34;99690.53;5038798;28;20083;-68
2023/04/25 08:11:21;;;;;;;0.20;0.20;;;;;;;19.22;67.54;99685.94;5038253;28;20087;-69
2023/04/25 08:13:46;;;;;;;0.20;0.20;;;;;;;19.07;66.97;99679.03;5037874;28;20028;-68
2023/04/25 08:16:12;;;;;;;0.20;0.20;;;;;;;18.99;67.42;99672.72;5038620;28;20033;-68
2023/04/25 08:18:42;;;;;;;0.20;0.20;;;;;;;19.05;67.45;99678.66;5038091;28;20060;-68
2023/04/25 08:21:11;;;;;;;0.20;0.20;;;;;;;18.70;70.07;99678.09;5038455;28;20029;-68
2023/04/25 08:23:36;;;;;;;0.20;0.20;;;;;;;19.16;68.74;99687.69;5038132;28;20029;-68
2023/04/25 08:26:05;;;;;;;0.20;0.20;;;;;;;18.84;68.32;99683.47;5038199;28;20529;-69
2023/04/25 08:28:31;;;;;;;0.20;0.20;;;;;;;19.02;68.33;99687.97;5055370;28;20029;-68
2023/04/25 08:31:00;;;;;;;0.20;0.20;;;;;;;19.95;65.08;99686.03;5037844;28;20143;-69
2023/04/25 08:33:31;;;;;;;0.20;0.20;;;;;;;19.03;67.68;99690.38;5037025;28;20076;-68
2023/04/25 08:35:56;;;;;;;0.20;0.20;;;;;;;18.70;70.26;99683.75;5038048;28;20418;-69
2023/04/25 08:38:22;;;;;;;0.20;0.20;;;;;;;18.66;70.10;99687.81;5037986;28;20040;-68
2023/04/25 08:40:51;;;;;;;0.20;0.20;;;;;;;18.60;71.05;99690.34;5037394;28;20025;-69
2023/04/25 08:43:20;;;;;;;0.20;0.20;;;;;;;18.65;70.80;99692.66;5038147;28;20052;-69
2023/04/25 08:45:49;;;;;;;0.20;0.20;;;;;;;18.88;69.10;99699.53;5055198;28;20096;-68
2023/04/25 08:48:19;;;;;;;0.20;0.20;;;;;;;19.81;65.26;99696.41;5037532;28;20035;-69
2023/04/25 08:50:53;;;;;;;0.20;0.20;;;;;;;19.76;64.73;99685.66;5037695;28;20032;-68
2023/04/25 08:53:27;;;;;;;0.20;0.20;;;;;;;19.95;65.46;99697.31;5037478;28;20089;-68
2023/04/25 08:55:58;;;;;;;0.20;0.20;;;;;;;19.63;64.88;99710.13;5037411;28;20032;-69
2023/04/25 08:58:26;;;;;;;0.20;0.20;;;;;;;19.69;64.27;99714.00;5054911;28;20021;-69
2023/04/25 09:00:54;;;;;;;0.20;0.20;;;;;;;20.10;62.05;99712.69;5037134;28;20075;-69
2023/04/25 09:03:22;;;;;;;0.20;0.20;;;;;;;19.68;64.77;99712.44;5054779;28;20024;-69
2023/04/25 09:05:51;;;;;;;0.20;0.20;;;;;;;19.53;63.76;99711.91;5054693;28;20032;-68
2023/04/25 09:08:16;;;;;;;0.20;0.20;;;;;;;19.73;64.98;99706.28;5036883;28;20032;-69
2023/04/25 09:10:47;;;;;;;0.20;0.20;;;;;;;20.48;60.08;99715.06;5037287;28;20029;-68
2023/04/25 09:13:14;;;;;;;0.20;0.20;;;;;;;20.40;61.68;99712.38;5036944;28;20033;-68
2023/04/25 09:15:49;;;;;;;0.20;0.20;;;;;;;20.49;62.17;99702.50;5036724;28;20029;-69
2023/04/25 09:18:28;;;;;;;0.20;0.20;;;;;;;20.23;62.44;99702.28;5037390;28;20036;-69
2023/04/25 09:20:55;;;;;;;0.20;0.20;;;;;;;20.09;64.29;99703.44;5055198;28;20367;-69
2023/04/25 09:23:24;;;;;;;0.20;0.20;;;;;;;19.59;64.41;99707.38;5036994;28;20132;-69
2023/04/25 09:25:53;;;;;;;0.20;0.20;;;;;;;19.42;61.91;99705.69;5037253;28;20033;-70
2023/04/25 09:28:27;;;;;;;0.20;0.20;;;;;;;20.25;58.65;99688.53;5036531;28;20025;-70
2023/04/25 09:30:57;;;;;;;0.20;0.20;;;;;;;20.02;59.51;99686.66;5037183;28;20388;-68
2023/04/25 09:33:28;;;;;;;0.20;0.20;;;;;;;19.48;63.61;99686.22;5036432;28;20077;-68
2023/04/25 09:36:04;;;;;;;0.20;0.20;;;;;;;19.41;62.49;99683.56;5036937;28;20052;-69
2023/04/25 09:38:41;;;;;;;0.20;0.20;;;;;;;19.63;62.59;99687.53;5036738;28;20029;-67
2023/04/25 09:41:07;;;;;;;0.20;0.20;;;;;;;20.21;60.81;99685.00;5036173;28;20028;-70
2023/04/25 09:43:35;;;;;;;0.20;0.20;;;;;;;20.90;57.76;99682.03;5036621;28;20033;-69
2023/04/25 09:46:08;;;;;;;0.20;0.20;;;;;;;20.91;57.81;99681.59;5035881;28;20037;-68
2023/04/25 09:48:33;;;;;;;0.20;0.20;;;;;;;21.27;56.13;99683.44;5054152;28;20464;-69
2023/04/25 09:51:13;;;;;;;0.20;0.20;;;;;;;22.02;53.50;99683.22;5036000;28;20053;-67
2023/04/25 09:53:46;;;;;;;0.20;0.20;;;;;;;21.54;53.17;99685.13;5054310;28;20060;-68
2023/04/25 09:56:18;;;;;;;0.20;0.20;;;;;;;21.52;54.74;99687.59;5036099;28;20120;-69
2023/04/25 09:58:49;;;;;;;0.20;0.20;;;;;;;22.64;51.60;99686.47;5035698;28;20037;-68
2023/04/25 10:01:16;;;;;;;0.20;0.20;;;;;;;22.94;50.63;99683.00;5036292;28;20448;-69
2023/04/25 10:03:44;;;;;;;0.20;0.20;;;;;;;21.67;54.43;99700.06;5053845;28;20083;-69
2023/04/25 10:06:20;;;;;;;0.20;0.20;;;;;;;21.91;55.01;99698.53;5036230;28;20474;-69
2023/04/25 10:08:50;;;;;;;0.20;0.20;;;;;;;21.91;54.05;99692.84;5053609;28;20056;-67
2023/04/25 10:11:22;;;;;;;0.20;0.20;;;;;;;20.34;61.62;99688.69;5036284;28;20025;-68
2023/04/25 10:13:51;;;;;;;0.20;0.20;;;;;;;19.78;64.07;99671.88;5036078;28;20025;-70
2023/04/25 10:16:17;;;;;;;0.20;0.20;;;;;;;20.67;61.43;99661.25;5054176;28;20033;-69
2023/04/25 10:18:47;;;;;;;0.20;0.20;;;;;;;20.92;58.87;99683.19;5035723;28;20498;-67
2023/04/25 10:21:15;;;;;;;0.20;0.20;;;;;;;21.83;55.84;99677.31;5053250;28;20036;-69
2023/04/25 10:23:42;;;;;;;0.20;0.20;;;;;;;22.16;54.80;99674.31;5035789;28;20029;-70
2023/04/25 10:26:12;;;;;;;0.20;0.20;;;;;;;21.86;54.89;99682.09;5035517;28;20043;-69
2023/04/25 10:29:00;;;;;;;0.20;0.20;;;;;;;21.45;56.94;99686.56;5035947;28;20052;-67
2023/04/25 10:31:26;;;;;;;0.20;0.20;;;;;;;22.08;54.32;99685.03;5053817;28;20029;-69
2023/04/25 10:33:54;;;;;;;0.20;0.20;;;;;;;22.11;53.00;99689.06;5035912;28;20033;-69
2023/04/25 10:36:23;;;;;;;0.20;0.20;;;;;;;21.88;54.93;99675.97;5036218;28;20095;-68
2023/04/25 10:38:51;;;;;;;0.20;0.20;;;;;;;22.45;51.45;99679.81;5035455;28;20025;-69
2023/04/25 10:41:24;;;;;;;0.20;0.20;;;;;;;22.58;50.84;99688.28;5035399;28;20468;-69
2023/04/25 10:43:58;;;;;;;;;;;;;;;21.78;51.46;99677.88;5035822;28;20021;-69
2023/04/25 10:46:34;;;;;;;0.20;0.20;;;;;;;22.34;52.32;99680.19;5035462;28;20300;-69
2023/04/25 10:49:02;;;;;;;0.20;0.20;;;;;;;21.50;54.44;99678.75;5035411;28;20065;-66
2023/04/25 10:51:35;;;;;;;0.20;0.20;;;;;;;21.39;54.22;99679.88;5035159;28;20045;-67
2023/04/25 10:54:01;;;;;;;0.20;0.20;;;;;;;20.51;59.33;99654.84;5035633;28;20057;-69
2023/04/25 10:56:33;;;;;;;0.20;0.20;;;;;;;20.73;57.22;99678.47;5035292;28;20029;-68
2023/04/25 10:59:05;;;;;;;0.20;0.20;;;;;;;20.34;59.44;99676.59;5038155;28;20426;-68
2023/04/25 11:01:42;;;;;;;0.20;0.20;;;;;;;20.12;59.21;99668.66;5039325;28;20056;-64
2023/04/25 11:04:30;;;;;;;0.20;0.20;;;;;;;19.83;60.34;99660.06;5039291;28;20562;-62
2023/04/25 11:07:06;;;;;;;0.20;0.20;;;;;;;19.40;61.75;99656.59;5039847;28;20025;-63
2023/04/25 11:09:51;;;;;;;0.20;0.20;;;;;;;19.42;62.47;99654.91;5039232;28;20029;-63
2023/04/25 11:12:19;;;;;;;0.20;0.20;;;;;;;19.38;63.43;99665.47;5039156;28;20025;-63
2023/04/25 11:14:44;;;;;;;0.20;0.20;;;;;;;19.29;61.89;99662.47;5039442;28;20033;-63
2023/04/25 11:17:13;;;;;;;0.20;0.20;;;;;;;19.11;63.15;99660.00;5039101;28;20483;-62
2023/04/25 11:19:41;;;;;;;0.20;0.20;;;;;;;19.51;61.77;99651.50;5039206;28;20029;-63
2023/04/25 11:22:12;;;;;;;0.20;0.20;;;;;;;19.57;61.59;99633.63;5039235;28;20094;-62
2023/04/25 11:24:38;;;;;;;0.20;0.20;;;;;;;19.86;59.58;99642.25;5039172;28;20094;-64
2023/04/25 11:27:06;;;;;;;0.20;0.20;;;;;;;19.62;59.47;99641.59;5039568;28;20410;-64
2023/04/25 11:29:33;;;;;;;0.20;0.20;;;;;;;19.56;61.78;99631.25;5038944;28;20041;-63
2023/04/25 11:32:00;;;;;;;0.20;0.20;;;;;;;19.53;61.49;99632.13;5039359;28;20132;-64
2023/04/25 11:34:33;;;;;;;0.20;0.20;;;;;;;19.18;63.13;99634.47;5039376;28;20025;-63
2023/04/25 11:37:02;;;;;;;0.20;0.20;;;;;;;19.32;63.02;99633.38;5039310;28;20379;-63